Time;durP1;ratioP1;P1;durP2;ratioP2;P2;SDS_P1;SDS_P2;PMS_P1;PMS_P2;Temp;Humidity;BMP_temperature;BMP_pressure;BME280_temperature;BME280_humidity;BME280_pressure;Samples;Min_cycle;Max_cycle;Signal;HPM_P1;HPM_P2
2021/01/07 00:01:23;;;;;;;7.23;5.37;;;;;;;0.60;85.54;100404.47;5061947;28;20788;-63
2021/01/07 00:03:49;;;;;;;5.97;5.10;;;;;;;0.60;85.65;100401.88;5059665;28;20684;-63
2021/01/07 00:06:16;;;;;;;6.20;4.87;;;;;;;0.60;85.51;100402.72;5057646;28;20225;-64
2021/01/07 00:08:42;;;;;;;5.83;4.70;;;;;;;0.60;85.51;100407.97;5062591;28;20665;-64
2021/01/07 00:11:10;;;;;;;7.37;5.43;;;;;;;0.58;85.32;100401.91;5065164;28;20586;-63
2021/01/07 00:13:37;;;;;;;5.90;4.80;;;;;;;0.58;85.73;100401.91;5057070;28;20221;-64
2021/01/07 00:16:04;;;;;;;7.20;4.57;;;;;;;0.58;85.80;100401.91;5058724;28;20723;-64
2021/01/07 00:18:31;;;;;;;6.40;4.63;;;;;;;0.58;85.59;100407.16;5063439;28;20676;-64
2021/01/07 00:20:58;;;;;;;6.73;5.00;;;;;;;0.58;86.00;100406.28;5060113;28;20221;-62
2021/01/07 00:23:24;;;;;;;6.27;4.90;;;;;;;0.57;85.63;100405.44;5056986;28;20252;-63
2021/01/07 00:25:51;;;;;;;6.17;4.77;;;;;;;0.57;85.44;100400.19;5061946;28;20224;-64
2021/01/07 00:28:18;;;;;;;6.23;4.93;;;;;;;0.57;85.95;100394.06;5066032;28;20197;-63
2021/01/07 00:30:44;;;;;;;7.13;5.53;;;;;;;0.56;85.73;100393.22;5064910;28;20204;-63
2021/01/07 00:33:11;;;;;;;7.37;5.43;;;;;;;0.56;86.00;100394.97;5061865;28;20215;-63
2021/01/07 00:35:38;;;;;;;6.63;4.83;;;;;;;0.56;85.72;100392.34;5059696;28;20224;-64
2021/01/07 00:38:05;;;;;;;6.37;5.33;;;;;;;0.57;85.73;100394.94;5065897;28;20205;-63
2021/01/07 00:40:32;;;;;;;6.93;6.23;;;;;;;0.58;85.87;100393.19;5057342;28;20235;-64
2021/01/07 00:42:58;;;;;;;8.73;6.60;;;;;;;0.58;86.16;100399.28;5068220;28;20623;-63
2021/01/07 00:45:24;;;;;;;9.53;6.33;;;;;;;0.58;86.39;100391.41;5066413;28;20231;-64
2021/01/07 00:47:50;;;;;;;8.03;6.10;;;;;;;0.59;86.05;100397.53;5071009;28;20215;-64
2021/01/07 00:50:16;;;;;;;9.13;6.80;;;;;;;0.59;86.30;100389.66;5068962;28;20193;-64
2021/01/07 00:52:43;;;;;;;7.97;6.27;;;;;;;0.58;85.88;100388.81;5069130;28;20689;-64
2021/01/07 00:55:11;;;;;;;7.00;5.70;;;;;;;0.59;86.19;100387.03;5071425;28;20247;-64
2021/01/07 00:57:38;;;;;;;7.20;5.90;;;;;;;0.59;86.23;100394.91;5070827;28;20216;-63
2021/01/07 01:00:05;;;;;;;7.90;5.57;;;;;;;0.57;86.08;100389.69;5056761;28;20228;-64
2021/01/07 01:02:32;;;;;;;8.40;6.00;;;;;;;0.57;86.20;100388.84;5067153;28;20215;-64
2021/01/07 01:04:58;;;;;;;6.03;4.87;;;;;;;0.56;86.17;100385.34;5079309;28;20224;-64
2021/01/07 01:07:24;;;;;;;6.53;4.43;;;;;;;0.56;86.24;100398.47;5078489;28;20211;-64
2021/01/07 01:09:51;;;;;;;7.10;5.03;;;;;;;0.56;86.04;100385.34;5070787;28;20243;-63
2021/01/07 01:12:17;;;;;;;5.27;4.17;;;;;;;0.56;86.33;100384.50;5069906;28;20212;-63
2021/01/07 01:14:43;;;;;;;5.53;4.20;;;;;;;0.56;86.26;100387.97;5069249;28;20228;-64
2021/01/07 01:17:09;;;;;;;6.77;4.43;;;;;;;0.57;86.11;100389.69;5060385;28;20210;-64
2021/01/07 01:19:35;;;;;;;5.37;4.10;;;;;;;0.57;86.20;100384.47;5067578;28;20294;-63
2021/01/07 01:22:01;;;;;;;6.87;4.93;;;;;;;0.56;86.59;100385.34;5078124;28;20448;-64
2021/01/07 01:24:27;;;;;;;6.20;4.73;;;;;;;0.56;86.23;100387.97;5060979;28;20216;-61
2021/01/07 01:26:55;;;;;;;6.90;5.00;;;;;;;0.55;86.40;100391.50;5056871;28;20250;-64
2021/01/07 01:29:21;;;;;;;5.57;4.57;;;;;;;0.56;86.45;100392.34;5069682;28;20608;-64
2021/01/07 01:31:47;;;;;;;5.87;4.20;;;;;;;0.55;86.39;100385.41;5063045;28;20865;-64
2021/01/07 01:34:14;;;;;;;6.07;4.63;;;;;;;0.56;86.39;100387.13;5068154;28;20208;-64
2021/01/07 01:36:40;;;;;;;4.87;3.70;;;;;;;0.55;86.04;100388.00;5071668;28;20574;-64
2021/01/07 01:39:06;;;;;;;6.37;4.73;;;;;;;0.55;86.12;100381.00;5069970;28;20282;-64
2021/01/07 01:41:38;;;;;;;7.13;5.03;;;;;;;0.53;86.34;100385.47;5068172;28;20219;-63
2021/01/07 01:44:06;;;;;;;6.10;4.70;;;;;;;0.53;86.47;100385.47;5070407;28;20205;-64
2021/01/07 01:46:32;;;;;;;6.10;4.17;;;;;;;0.54;86.45;100379.28;5070266;28;20297;-63
2021/01/07 01:48:59;;;;;;;6.00;4.20;;;;;;;0.52;86.35;100381.13;5082781;28;20208;-64
2021/01/07 01:51:25;;;;;;;5.17;3.97;;;;;;;0.52;86.04;100381.13;5070522;28;20211;-63
2021/01/07 01:53:52;;;;;;;6.10;3.70;;;;;;;0.51;86.55;100379.41;5058367;28;20695;-63
2021/01/07 01:56:18;;;;;;;4.63;3.70;;;;;;;0.51;86.52;100383.78;5067074;28;20225;-64
2021/01/07 01:58:44;;;;;;;4.90;3.50;;;;;;;0.51;86.38;100378.53;5069886;28;20200;-64
2021/01/07 02:01:11;;;;;;;4.90;4.07;;;;;;;0.50;86.50;100380.31;5067659;28;20207;-64
2021/01/07 02:03:41;;;;;;;5.87;3.30;;;;;;;0.50;86.58;100377.69;5062495;28;20254;-63
2021/01/07 02:06:11;;;;;;;4.53;3.77;;;;;;;0.50;86.55;100379.44;5058173;28;20225;-64
2021/01/07 02:08:39;;;;;;;5.57;4.00;;;;;;;0.49;86.77;100381.19;5061054;28;20209;-64
2021/01/07 02:11:05;;;;;;;4.37;3.47;;;;;;;0.49;86.44;100377.72;5064996;28;20204;-64
2021/01/07 02:13:32;;;;;;;6.33;4.50;;;;;;;0.49;86.50;100381.19;5079973;28;20212;-64
2021/01/07 02:15:58;;;;;;;6.97;4.80;;;;;;;0.49;86.57;100386.44;5053803;28;20229;-61
2021/01/07 02:18:25;;;;;;;5.73;4.37;;;;;;;0.49;86.72;100381.19;5070124;28;20197;-63
2021/01/07 02:20:52;;;;;;;6.13;4.37;;;;;;;0.49;86.66;100386.44;5069124;28;20228;-64
2021/01/07 02:23:18;;;;;;;7.40;5.07;;;;;;;0.49;86.76;100386.44;5060128;28;20208;-64
2021/01/07 02:25:44;;;;;;;5.80;4.00;;;;;;;0.49;86.83;100394.31;5069912;28;20225;-64
2021/01/07 02:28:10;;;;;;;8.17;5.17;;;;;;;0.51;86.89;100383.78;5067987;28;20930;-65
2021/01/07 02:30:36;;;;;;;6.67;5.13;;;;;;;0.50;86.71;100392.53;5067806;28;20193;-64
2021/01/07 02:33:02;;;;;;;6.33;4.33;;;;;;;0.50;86.74;100392.53;5066815;28;20209;-64
2021/01/07 02:35:28;;;;;;;6.43;4.33;;;;;;;0.49;86.78;100385.59;5070168;28;20262;-65
2021/01/07 02:37:55;;;;;;;6.47;4.03;;;;;;;0.49;86.91;100382.97;5069073;28;20269;-65
2021/01/07 02:40:21;;;;;;;6.40;4.40;;;;;;;0.47;86.85;100374.28;5065806;28;20222;-64
2021/01/07 02:42:47;;;;;;;6.37;4.37;;;;;;;0.49;86.92;100380.34;5069264;28;20205;-64
2021/01/07 02:45:14;;;;;;;6.33;4.20;;;;;;;0.47;86.83;100377.75;5068106;28;20235;-65
2021/01/07 02:47:40;;;;;;;7.40;5.13;;;;;;;0.47;86.87;100376.91;5072925;28;20201;-64
2021/01/07 02:50:08;;;;;;;6.13;4.73;;;;;;;0.45;87.23;100379.56;5072183;28;20207;-64
2021/01/07 02:52:34;;;;;;;6.23;4.83;;;;;;;0.45;86.94;100376.94;5072129;28;20298;-64
2021/01/07 02:55:01;;;;;;;6.73;4.57;;;;;;;0.44;86.96;100376.97;5072669;28;20225;-64
2021/01/07 02:57:28;;;;;;;7.63;4.50;;;;;;;0.44;86.82;100372.59;5070644;28;20254;-64
2021/01/07 02:59:54;;;;;;;7.07;4.67;;;;;;;0.44;86.85;100371.72;5071946;28;20599;-65
2021/01/07 03:02:20;;;;;;;5.93;4.73;;;;;;;0.42;86.89;100371.78;5062518;28;20667;-64
2021/01/07 03:04:46;;;;;;;6.37;4.80;;;;;;;0.43;86.94;100370.00;5068157;28;20224;-64
2021/01/07 03:07:12;;;;;;;6.30;4.90;;;;;;;0.42;86.96;100371.78;5058485;28;20263;-65
2021/01/07 03:09:38;;;;;;;6.27;4.90;;;;;;;0.42;87.28;100368.28;5071790;28;20670;-64
2021/01/07 03:12:13;;;;;;;7.60;5.00;;;;;;;0.44;86.90;100367.34;5080249;28;20205;-65
2021/01/07 03:14:39;;;;;;;6.87;4.43;;;;;;;0.42;86.99;100373.53;5065959;28;20224;-64
2021/01/07 03:17:05;;;;;;;6.87;4.80;;;;;;;0.40;87.06;100373.56;5064419;28;20673;-65
2021/01/07 03:19:31;;;;;;;7.53;4.87;;;;;;;0.42;86.97;100370.91;5063506;28;20235;-64
2021/01/07 03:21:57;;;;;;;6.80;4.83;;;;;;;0.42;86.98;100373.53;5063556;28;20226;-65
2021/01/07 03:24:23;;;;;;;6.80;4.50;;;;;;;0.41;86.83;100370.06;5069560;28;20201;-64
2021/01/07 03:26:49;;;;;;;6.87;5.10;;;;;;;0.41;87.11;100372.66;5060417;28;20222;-64
2021/01/07 03:29:16;;;;;;;7.83;4.77;;;;;;;0.41;87.15;100359.56;5071172;28;20205;-64
2021/01/07 03:31:42;;;;;;;7.67;4.63;;;;;;;0.41;87.02;100356.94;5057883;28;20208;-64
2021/01/07 03:34:08;;;;;;;6.47;4.57;;;;;;;0.42;87.26;100363.91;5072106;28;20205;-64
2021/01/07 03:36:34;;;;;;;8.37;4.90;;;;;;;0.43;86.89;100364.78;5054177;28;20225;-64
2021/01/07 03:39:01;;;;;;;6.00;4.47;;;;;;;0.41;86.95;100356.94;5060948;28;20266;-64
2021/01/07 03:41:27;;;;;;;7.60;4.73;;;;;;;0.42;87.21;100352.56;5078489;28;20204;-63
2021/01/07 03:43:53;;;;;;;7.33;4.77;;;;;;;0.42;86.92;100363.06;5065002;28;20212;-64
2021/01/07 03:46:19;;;;;;;7.37;4.63;;;;;;;0.42;86.86;100365.66;5059201;28;20233;-63
2021/01/07 03:48:45;;;;;;;6.37;4.73;;;;;;;0.43;87.04;100370.88;5063673;28;20215;-64
2021/01/07 03:51:11;;;;;;;5.97;3.87;;;;;;;0.42;87.00;100371.78;5064586;28;20201;-64
2021/01/07 03:53:38;;;;;;;7.07;5.27;;;;;;;0.41;87.12;100358.72;5072192;28;20572;-64
2021/01/07 03:56:04;;;;;;;5.67;4.37;;;;;;;0.41;87.01;100362.19;5071323;28;20231;-64
2021/01/07 03:58:30;;;;;;;5.93;4.27;;;;;;;0.40;87.14;100357.84;5065483;28;20208;-63
2021/01/07 04:00:56;;;;;;;7.93;5.00;;;;;;;0.39;87.00;100356.13;5071110;28;20228;-65
2021/01/07 04:03:23;;;;;;;6.30;4.50;;;;;;;0.38;87.01;100353.53;5065319;28;20200;-64
2021/01/07 04:05:49;;;;;;;7.00;5.03;;;;;;;0.37;86.88;100355.31;5072217;28;20229;-64
2021/01/07 04:08:15;;;;;;;6.87;4.87;;;;;;;0.37;86.91;100359.69;5072358;28;20575;-65
2021/01/07 04:10:41;;;;;;;6.90;4.90;;;;;;;0.36;86.96;100361.44;5068704;28;20193;-65
2021/01/07 04:13:07;;;;;;;6.10;4.13;;;;;;;0.36;86.91;100356.19;5063233;28;20211;-64
2021/01/07 04:15:33;;;;;;;6.37;4.27;;;;;;;0.35;86.83;100351.91;5061080;28;20220;-64
2021/01/07 04:17:59;;;;;;;7.40;4.43;;;;;;;0.35;87.13;100341.41;5069219;28;20231;-65
2021/01/07 04:20:26;;;;;;;5.40;4.40;;;;;;;0.34;86.89;100353.66;5071328;28;20224;-64
2021/01/07 04:22:52;;;;;;;6.17;3.97;;;;;;;0.35;86.73;100351.91;5070412;28;20205;-65
2021/01/07 04:25:18;;;;;;;6.40;5.00;;;;;;;0.35;86.66;100346.66;5071420;28;20241;-65
2021/01/07 04:27:44;;;;;;;6.70;5.03;;;;;;;0.34;86.88;100352.78;5055804;28;20205;-65
2021/01/07 04:30:11;;;;;;;7.93;5.00;;;;;;;0.33;86.88;100345.84;5071336;28;20204;-64
2021/01/07 04:32:37;;;;;;;7.17;5.33;;;;;;;0.34;86.91;100350.19;5070962;28;20209;-65
2021/01/07 04:35:04;;;;;;;6.60;4.90;;;;;;;0.32;86.65;100339.72;5069355;28;20238;-64
2021/01/07 04:37:31;;;;;;;7.73;5.13;;;;;;;0.32;86.85;100349.34;5059793;28;20210;-65
2021/01/07 04:39:57;;;;;;;9.80;5.60;;;;;;;0.32;86.76;100338.88;5066715;28;20225;-65
2021/01/07 04:42:24;;;;;;;8.60;6.10;;;;;;;0.32;86.71;100346.72;5059983;28;20216;-64
2021/01/07 04:44:51;;;;;;;8.30;6.00;;;;;;;0.31;86.63;100345.88;5053803;28;20228;-64
2021/01/07 04:47:17;;;;;;;8.70;6.10;;;;;;;0.32;86.81;100337.13;5060258;28;20204;-63
2021/01/07 04:49:43;;;;;;;8.23;5.73;;;;;;;0.32;86.99;100336.25;5069467;28;20197;-61
2021/01/07 04:52:09;;;;;;;7.93;6.03;;;;;;;0.32;86.60;100341.50;5070157;28;20259;-64
2021/01/07 04:54:36;;;;;;;8.40;5.67;;;;;;;0.32;86.72;100339.72;5070035;28;20274;-64
2021/01/07 04:57:02;;;;;;;7.50;5.27;;;;;;;0.33;86.77;100337.97;5072448;28;20295;-65
2021/01/07 04:59:28;;;;;;;9.87;6.07;;;;;;;0.32;86.76;100331.00;5076497;28;20228;-65
2021/01/07 05:01:55;;;;;;;8.80;5.73;;;;;;;0.31;86.62;100338.00;5067933;28;20257;-64
2021/01/07 05:04:21;;;;;;;8.00;5.23;;;;;;;0.31;86.77;100337.16;5071044;28;20682;-64
2021/01/07 05:06:48;;;;;;;6.87;4.57;;;;;;;0.31;86.86;100332.78;5056767;28;20237;-64
2021/01/07 05:09:14;;;;;;;6.20;4.47;;;;;;;0.31;86.97;100332.78;5068655;28;20196;-64
2021/01/07 05:11:41;;;;;;;6.67;5.10;;;;;;;0.30;86.78;100336.28;5067816;28;20649;-64
2021/01/07 05:14:09;;;;;;;9.37;5.63;;;;;;;0.30;86.71;100336.28;5061249;28;20209;-64
2021/01/07 05:16:35;;;;;;;8.63;5.20;;;;;;;0.30;86.73;100335.44;5070688;28;20712;-64
2021/01/07 05:19:04;;;;;;;6.87;4.87;;;;;;;0.29;86.79;100336.34;5069732;28;20692;-64
2021/01/07 05:21:30;;;;;;;8.07;5.10;;;;;;;0.29;86.70;100334.56;5068970;28;20200;-63
2021/01/07 05:23:58;;;;;;;8.13;5.40;;;;;;;0.29;86.87;100328.47;5068762;28;20216;-64
2021/01/07 05:26:24;;;;;;;6.60;4.43;;;;;;;0.29;86.57;100325.84;5064562;28;20221;-64
2021/01/07 05:28:53;;;;;;;5.90;4.70;;;;;;;0.28;86.68;100327.59;5060381;28;20208;-64
2021/01/07 05:31:19;;;;;;;7.03;4.97;;;;;;;0.28;86.84;100330.22;5068939;28;20291;-64
2021/01/07 05:33:45;;;;;;;8.33;5.53;;;;;;;0.28;86.71;100329.38;5069375;28;20211;-64
2021/01/07 05:36:21;;;;;;;7.77;4.80;;;;;;;0.28;86.72;100330.22;5068775;28;20227;-63
2021/01/07 05:38:48;;;;;;;8.37;4.53;;;;;;;0.29;86.81;100328.47;5069445;28;20216;-64
2021/01/07 05:41:14;;;;;;;6.67;4.50;;;;;;;0.29;86.65;100331.09;5068754;28;20221;-63
2021/01/07 05:43:41;;;;;;;7.17;4.90;;;;;;;0.29;86.55;100333.72;5055219;28;20201;-62
2021/01/07 05:46:08;;;;;;;7.37;5.20;;;;;;;0.30;86.81;100338.06;5069884;28;20744;-63
2021/01/07 05:48:34;;;;;;;6.63;4.87;;;;;;;0.30;86.74;100332.81;5063589;28;20642;-64
2021/01/07 05:51:03;;;;;;;8.60;5.43;;;;;;;0.30;86.65;100338.06;5050037;28;20753;-64
2021/01/07 05:53:30;;;;;;;6.93;5.13;;;;;;;0.32;86.63;100338.88;5064981;28;20569;-62
2021/01/07 05:55:56;;;;;;;8.30;5.27;;;;;;;0.31;86.65;100334.53;5069139;28;20230;-64
2021/01/07 05:58:23;;;;;;;5.90;4.43;;;;;;;0.32;86.69;100341.50;5066425;28;20224;-64
2021/01/07 06:00:50;;;;;;;5.97;4.50;;;;;;;0.33;86.80;100337.97;5076896;28;20224;-64
2021/01/07 06:03:19;;;;;;;6.90;5.07;;;;;;;0.33;86.78;100337.97;5057109;28;21561;-65
2021/01/07 06:05:46;;;;;;;7.17;5.30;;;;;;;0.33;86.66;100343.22;5058294;28;20693;-64
2021/01/07 06:08:16;;;;;;;7.87;5.37;;;;;;;0.34;86.84;100342.31;5079882;28;20208;-64
2021/01/07 06:10:45;;;;;;;6.50;4.97;;;;;;;0.33;86.84;100341.47;5067498;28;20215;-64
2021/01/07 06:13:11;;;;;;;7.83;5.07;;;;;;;0.34;86.65;100339.69;5069830;28;20738;-64
2021/01/07 06:15:37;;;;;;;6.87;4.73;;;;;;;0.33;86.67;100338.84;5058304;28;20603;-65
2021/01/07 06:18:05;;;;;;;7.60;4.80;;;;;;;0.34;86.83;100339.69;5068273;28;20217;-64
2021/01/07 06:20:33;;;;;;;6.53;4.37;;;;;;;0.33;86.69;100344.06;5069748;28;20228;-64
2021/01/07 06:23:00;;;;;;;7.37;4.93;;;;;;;0.33;86.75;100348.44;5071273;28;20197;-61
2021/01/07 06:25:26;;;;;;;7.03;5.17;;;;;;;0.33;86.68;100335.34;5074109;28;20736;-64
2021/01/07 06:27:54;;;;;;;6.83;4.87;;;;;;;0.33;86.82;100343.22;5068962;28;20235;-64
2021/01/07 06:30:34;;;;;;;7.03;4.90;;;;;;;0.31;86.86;100343.25;5063046;28;20217;-64
2021/01/07 06:33:02;;;;;;;6.63;4.93;;;;;;;0.31;86.72;100351.09;5065828;28;20212;-64
2021/01/07 06:35:33;;;;;;;7.43;5.13;;;;;;;0.32;86.60;100349.34;5064508;28;20220;-64
2021/01/07 06:38:00;;;;;;;7.03;5.07;;;;;;;0.30;86.65;100343.28;5058782;28;20216;-64
2021/01/07 06:40:26;;;;;;;6.50;4.70;;;;;;;0.30;86.59;100341.53;5061378;28;20229;-64
2021/01/07 06:42:54;;;;;;;6.93;5.10;;;;;;;0.30;86.66;100345.91;5073103;28;20205;-64
2021/01/07 06:45:22;;;;;;;5.87;4.33;;;;;;;0.30;86.59;100340.66;5061920;28;20221;-64
2021/01/07 06:47:48;;;;;;;6.40;4.80;;;;;;;0.29;86.67;100346.81;5071443;28;20209;-64
2021/01/07 06:50:15;;;;;;;7.33;5.07;;;;;;;0.28;86.78;100343.31;5061415;28;20197;-62
2021/01/07 06:52:42;;;;;;;7.87;5.63;;;;;;;0.28;86.65;100340.72;5062058;28;20201;-64
2021/01/07 06:55:12;;;;;;;6.33;4.47;;;;;;;0.28;86.77;100345.09;5074588;28;20217;-64
2021/01/07 06:57:43;;;;;;;6.27;4.87;;;;;;;0.28;86.81;100345.09;5080418;28;20210;-63
2021/01/07 07:00:11;;;;;;;7.27;5.13;;;;;;;0.28;86.70;100345.09;5069936;28;20224;-64
2021/01/07 07:02:37;;;;;;;7.17;4.87;;;;;;;0.28;86.73;100350.31;5064022;28;20213;-64
2021/01/07 07:05:07;;;;;;;6.30;4.77;;;;;;;0.28;86.75;100339.84;5068322;28;20700;-64
2021/01/07 07:07:59;;;;;;;8.10;4.87;;;;;;;0.27;86.82;100352.09;5071798;28;20205;-63
2021/01/07 07:10:57;;;;;;;8.23;5.17;;;;;;;0.27;86.78;100353.84;5066819;28;20217;-63
2021/01/07 07:13:26;;;;;;;7.70;5.20;;;;;;;0.27;86.90;100356.47;5058606;28;20213;-64
2021/01/07 07:15:53;;;;;;;7.83;5.33;;;;;;;0.27;86.69;100361.69;5056417;28;20233;-64
2021/01/07 07:18:26;;;;;;;8.00;5.53;;;;;;;0.27;86.79;100361.69;5064916;28;20940;-62
2021/01/07 07:20:52;;;;;;;9.27;6.40;;;;;;;0.26;87.09;100358.22;5063828;28;20233;-64
2021/01/07 07:23:20;;;;;;;10.27;6.37;;;;;;;0.27;86.75;100359.06;5062886;28;20210;-64
2021/01/07 07:25:49;;;;;;;10.63;6.77;;;;;;;0.27;86.87;100362.56;5062771;28;20236;-64
2021/01/07 07:28:16;;;;;;;7.60;5.73;;;;;;;0.28;86.91;100366.03;5067048;28;20656;-64
2021/01/07 07:30:45;;;;;;;7.20;5.40;;;;;;;0.28;86.62;100361.66;5066758;28;20193;-64
2021/01/07 07:33:11;;;;;;;9.20;5.37;;;;;;;0.30;86.91;100374.72;5063268;28;20205;-64
2021/01/07 07:35:43;;;;;;;7.80;5.40;;;;;;;0.31;87.01;100371.19;5059158;28;20681;-64
2021/01/07 07:38:10;;;;;;;7.33;5.47;;;;;;;0.32;86.85;100370.31;5065077;28;20209;-64
2021/01/07 07:40:37;;;;;;;7.87;5.27;;;;;;;0.32;86.95;100373.78;5069408;28;20240;-64
2021/01/07 07:43:05;;;;;;;9.13;6.00;;;;;;;0.34;86.92;100373.75;5065159;28;20216;-64
2021/01/07 07:45:33;;;;;;;8.63;5.97;;;;;;;0.34;86.95;100376.38;5056804;28;20610;-64
2021/01/07 07:48:00;;;;;;;9.40;6.13;;;;;;;0.33;86.72;100372.88;5059119;28;20270;-63
2021/01/07 07:50:28;;;;;;;8.60;5.80;;;;;;;0.36;86.99;100381.56;5063847;28;20205;-64
2021/01/07 07:53:04;;;;;;;7.60;5.77;;;;;;;0.37;86.93;100384.13;5060726;28;20213;-64
2021/01/07 07:55:33;;;;;;;8.27;5.97;;;;;;;0.37;87.08;100381.50;5059418;28;20227;-64
2021/01/07 07:58:08;;;;;;;8.23;5.77;;;;;;;0.39;87.00;100384.09;5059087;28;20984;-64
2021/01/07 08:00:35;;;;;;;7.73;5.83;;;;;;;0.38;87.17;100380.59;5065529;28;20220;-64
2021/01/07 08:03:02;;;;;;;8.30;6.07;;;;;;;0.39;87.10;100390.19;5062076;28;20208;-63
2021/01/07 08:05:28;;;;;;;8.00;5.90;;;;;;;0.39;87.05;100389.31;5064240;28;20213;-64
2021/01/07 08:07:55;;;;;;;9.07;6.37;;;;;;;0.40;87.13;100391.03;5056126;28;20269;-64
2021/01/07 08:10:22;;;;;;;8.40;5.80;;;;;;;0.40;87.05;100398.91;5061615;28;20205;-64
2021/01/07 08:12:49;;;;;;;7.13;5.13;;;;;;;0.40;86.94;100394.53;5061661;28;20565;-64
2021/01/07 08:15:26;;;;;;;7.87;6.30;;;;;;;0.42;86.98;100399.72;5061223;28;20586;-64
2021/01/07 08:17:52;;;;;;;8.40;5.60;;;;;;;0.43;87.11;100390.97;5054409;28;20205;-63
2021/01/07 08:20:24;;;;;;;7.87;5.60;;;;;;;0.42;87.12;100392.72;5066005;28;20225;-64
2021/01/07 08:22:51;;;;;;;8.97;5.67;;;;;;;0.44;87.07;100397.94;5053923;28;20729;-64
2021/01/07 08:25:25;;;;;;;7.83;5.73;;;;;;;0.43;87.05;100399.69;5061260;28;20225;-63
2021/01/07 08:27:56;;;;;;;8.27;5.70;;;;;;;0.44;87.36;100392.69;5059285;28;20932;-65
2021/01/07 08:30:23;;;;;;;7.53;5.57;;;;;;;0.45;87.10;100402.28;5059588;28;20197;-65
2021/01/07 08:32:51;;;;;;;10.93;6.03;;;;;;;0.46;87.11;100394.38;5058857;28;20868;-63
2021/01/07 08:35:20;;;;;;;8.53;5.80;;;;;;;0.47;87.07;100388.25;5062092;28;20224;-64
2021/01/07 08:37:47;;;;;;;7.37;5.80;;;;;;;0.47;87.12;100388.25;5062160;28;20209;-64
2021/01/07 08:40:13;;;;;;;8.77;6.23;;;;;;;0.49;87.33;100389.06;5061769;28;20225;-64
2021/01/07 08:42:40;;;;;;;8.00;6.63;;;;;;;0.49;87.17;100389.06;5060804;28;20201;-64
2021/01/07 08:45:08;;;;;;;7.67;6.20;;;;;;;0.50;87.23;100385.53;5059507;28;20289;-63
2021/01/07 08:47:34;;;;;;;8.30;5.77;;;;;;;0.52;87.06;100390.75;5053479;28;20198;-64
2021/01/07 08:50:03;;;;;;;8.53;6.23;;;;;;;0.53;86.87;100384.59;5061925;28;20205;-64
2021/01/07 08:52:29;;;;;;;8.40;6.10;;;;;;;0.53;87.26;100388.09;5068605;28;20201;-64
2021/01/07 08:54:56;;;;;;;9.47;6.10;;;;;;;0.55;86.89;100382.78;5057546;28;20298;-64
2021/01/07 08:57:22;;;;;;;9.03;6.47;;;;;;;0.56;87.01;100380.13;5064784;28;20669;-65
2021/01/07 08:59:48;;;;;;;7.97;6.50;;;;;;;0.58;87.30;100380.94;5067046;28;20264;-64
2021/01/07 09:02:19;;;;;;;10.17;6.27;;;;;;;0.59;87.33;100377.41;5059954;28;20206;-64
2021/01/07 09:04:45;;;;;;;8.70;6.30;;;;;;;0.61;87.13;100383.47;5058350;28;20307;-64
2021/01/07 09:07:18;;;;;;;9.87;6.27;;;;;;;0.64;87.00;100385.16;5077090;28;20215;-64
2021/01/07 09:09:47;;;;;;;7.97;6.33;;;;;;;0.64;87.38;100386.03;5073004;28;20197;-65
2021/01/07 09:12:17;;;;;;;8.37;6.17;;;;;;;0.66;86.76;100389.47;5059210;28;20216;-64
2021/01/07 09:14:44;;;;;;;7.87;5.70;;;;;;;0.68;87.17;100387.66;5067922;28;20551;-65
2021/01/07 09:17:10;;;;;;;8.90;6.60;;;;;;;0.68;86.99;100389.44;5056559;28;20213;-64
2021/01/07 09:19:36;;;;;;;6.67;5.03;;;;;;;0.69;86.77;100388.53;5065511;28;20581;-65
2021/01/07 09:22:02;;;;;;;7.73;5.80;;;;;;;0.68;86.84;100392.91;5062571;28;20209;-65
2021/01/07 09:24:35;;;;;;;7.47;5.70;;;;;;;0.69;86.97;100393.78;5069674;28;20577;-64
2021/01/07 09:27:08;;;;;;;8.73;6.30;;;;;;;0.71;86.95;100391.13;5057959;28;20284;-64
2021/01/07 09:29:36;;;;;;;8.67;6.03;;;;;;;0.71;86.80;100391.97;5056728;28;20289;-64
2021/01/07 09:32:04;;;;;;;7.57;6.23;;;;;;;0.72;86.67;100393.66;5056564;28;20209;-62
2021/01/07 09:34:30;;;;;;;10.10;6.43;;;;;;;0.73;86.78;100387.53;5066133;28;20215;-64
2021/01/07 09:37:05;;;;;;;7.83;6.03;;;;;;;0.72;86.66;100391.03;5061639;28;20296;-64
2021/01/07 09:39:31;;;;;;;8.30;6.43;;;;;;;0.74;86.80;100396.25;5063886;28;20239;-63
2021/01/07 09:41:57;;;;;;;9.80;6.77;;;;;;;0.74;86.88;100393.63;5062638;28;20201;-64
2021/01/07 09:44:23;;;;;;;9.97;6.33;;;;;;;0.77;86.56;100396.16;5056933;28;20236;-65
2021/01/07 09:46:55;;;;;;;11.70;6.27;;;;;;;0.78;86.78;100395.28;5061597;28;20201;-65
2021/01/07 09:49:21;;;;;;;7.63;6.20;;;;;;;0.79;86.42;100394.38;5064743;28;20201;-64
2021/01/07 09:51:47;;;;;;;8.03;5.87;;;;;;;0.81;86.88;100396.06;5064802;28;20209;-65
2021/01/07 09:54:13;;;;;;;8.90;6.33;;;;;;;0.81;86.52;100397.81;5055261;28;20780;-65
2021/01/07 09:56:39;;;;;;;6.30;4.93;;;;;;;0.83;86.77;100396.00;5061291;28;20229;-64
2021/01/07 09:59:06;;;;;;;7.13;4.83;;;;;;;0.85;86.61;100388.97;5067044;28;20625;-65
2021/01/07 10:01:32;;;;;;;7.67;5.43;;;;;;;0.85;86.60;100392.44;5066914;28;20224;-64
2021/01/07 10:03:59;;;;;;;6.77;5.13;;;;;;;0.87;86.29;100392.41;5070685;28;20208;-65
2021/01/07 10:06:25;;;;;;;5.90;4.63;;;;;;;0.88;86.55;100394.13;5064987;28;20217;-65
2021/01/07 10:08:51;;;;;;;12.27;8.73;;;;;;;0.89;86.46;100395.84;5071182;28;20262;-64
2021/01/07 10:11:17;;;;;;;12.47;8.10;;;;;;;0.90;86.50;100395.78;5067976;28;20655;-65
2021/01/07 10:13:43;;;;;;;11.70;10.50;;;;;;;0.92;86.23;100387.88;5068303;28;20225;-65
2021/01/07 10:16:10;;;;;;;7.73;6.20;;;;;;;0.93;86.16;100387.84;5061511;28;20232;-65
2021/01/07 10:18:37;;;;;;;10.03;8.97;;;;;;;0.94;86.20;100386.94;5064582;28;20216;-65
2021/01/07 10:21:07;;;;;;;9.17;7.20;;;;;;;0.97;86.17;100388.63;5065064;28;20217;-65
2021/01/07 10:23:34;;;;;;;9.10;6.33;;;;;;;0.98;86.06;100385.09;5067753;28;20209;-65
2021/01/07 10:26:01;;;;;;;8.23;6.60;;;;;;;0.99;86.32;100384.19;5067655;28;20220;-65
2021/01/07 10:28:28;;;;;;;12.23;9.40;;;;;;;1.00;86.23;100381.53;5064674;28;20194;-63
2021/01/07 10:30:54;;;;;;;10.47;8.47;;;;;;;1.03;86.37;100380.59;5067841;28;20217;-63
2021/01/07 10:33:21;;;;;;;8.13;7.33;;;;;;;1.05;86.27;100381.41;5070233;28;20200;-63
2021/01/07 10:35:47;;;;;;;8.57;6.23;;;;;;;1.06;86.05;100372.63;5069635;28;20282;-63
2021/01/07 10:38:21;;;;;;;8.07;6.57;;;;;;;1.07;86.16;100371.72;5057239;28;20720;-65
2021/01/07 10:40:47;;;;;;;8.83;6.37;;;;;;;1.09;85.82;100372.50;5064454;28;20232;-63
2021/01/07 10:43:14;;;;;;;8.17;5.77;;;;;;;1.09;85.80;100369.03;5061510;28;20205;-63
2021/01/07 10:45:40;;;;;;;7.80;5.77;;;;;;;1.12;85.95;100367.19;5055733;28;20231;-63
2021/01/07 10:48:13;;;;;;;9.57;6.53;;;;;;;1.13;86.07;100371.53;5062480;28;20205;-63
2021/01/07 10:50:41;;;;;;;7.93;6.50;;;;;;;1.14;85.96;100373.25;5059224;28;20200;-63
2021/01/07 10:53:28;;;;;;;7.90;5.87;;;;;;;1.15;85.89;100361.84;5059129;28;20197;-63
2021/01/07 10:56:01;;;;;;;6.17;4.97;;;;;;;1.17;85.80;100362.66;5063941;28;20274;-63
2021/01/07 10:58:48;;;;;;;7.43;5.93;;;;;;;1.19;85.42;100363.50;5061632;28;20205;-64
2021/01/07 11:01:29;;;;;;;8.30;5.90;;;;;;;1.18;85.57;100356.53;5069013;28;20232;-63
2021/01/07 11:04:17;;;;;;;7.83;5.60;;;;;;;1.19;85.19;100360.88;5057292;28;20231;-64
2021/01/07 11:06:49;;;;;;;5.60;4.17;;;;;;;1.20;85.51;100359.97;5054835;28;20221;-63
2021/01/07 11:09:18;;;;;;;6.73;5.00;;;;;;;1.19;85.34;100355.63;5064141;28;20196;-65
2021/01/07 11:11:49;;;;;;;6.70;5.67;;;;;;;1.18;85.45;100358.28;5060662;28;20250;-62
2021/01/07 11:14:22;;;;;;;6.67;5.93;;;;;;;1.20;85.74;100361.72;5057701;28;20201;-62
2021/01/07 11:16:52;;;;;;;6.97;6.27;;;;;;;1.19;85.78;100345.13;5065064;28;20709;-61
2021/01/07 11:19:22;;;;;;;8.23;6.00;;;;;;;1.22;85.10;100352.06;5059588;28;20213;-62
2021/01/07 11:21:54;;;;;;;5.47;4.97;;;;;;;1.21;85.19;100350.34;5058894;28;20228;-62
2021/01/07 11:24:23;;;;;;;5.73;4.40;;;;;;;1.21;85.23;100339.84;5061739;28;20217;-62
2021/01/07 11:26:50;;;;;;;10.27;8.40;;;;;;;1.19;85.07;100341.66;5056951;28;20210;-65
2021/01/07 11:29:17;;;;;;;8.90;8.00;;;;;;;1.18;85.02;100335.53;5062836;28;20205;-62
2021/01/07 11:31:44;;;;;;;7.07;6.37;;;;;;;1.20;85.02;100332.88;5063579;28;20200;-60
2021/01/07 11:34:12;;;;;;;5.37;4.63;;;;;;;1.20;85.06;100336.34;5060108;28;20205;-63
2021/01/07 11:36:51;;;;;;;10.47;9.47;;;;;;;1.20;84.87;100336.34;5065499;28;20232;-65